sensor_id;sensor_type;location;lat;lon;timestamp;temperature;humidity
17687;DHT22;8962;52.538;13.266;2022-09-04T00:01:55;16.60;99.90
17687;DHT22;8962;52.538;13.266;2022-09-04T00:04:31;16.60;99.90
17687;DHT22;8962;52.538;13.266;2022-09-04T00:07:15;16.60;99.90
17687;DHT22;8962;52.538;13.266;2022-09-04T00:09:54;16.60;99.90
17687;DHT22;8962;52.538;13.266;2022-09-04T00:12:26;16.60;99.90
17687;DHT22;8962;52.538;13.266;2022-09-04T00:15:01;16.50;99.90
17687;DHT22;8962;52.538;13.266;2022-09-04T00:17:36;16.50;99.90
17687;DHT22;8962;52.538;13.266;2022-09-04T00:20:24;16.40;99.90
17687;DHT22;8962;52.538;13.266;2022-09-04T00:22:58;16.40;99.90
17687;DHT22;8962;52.538;13.266;2022-09-04T00:25:34;16.40;99.90
17687;DHT22;8962;52.538;13.266;2022-09-04T00:28:09;16.40;99.90
17687;DHT22;8962;52.538;13.266;2022-09-04T00:30:45;16.30;99.90
17687;DHT22;8962;52.538;13.266;2022-09-04T00:33:20;16.30;99.90
17687;DHT22;8962;52.538;13.266;2022-09-04T00:35:52;16.30;99.90
17687;DHT22;8962;52.538;13.266;2022-09-04T00:38:31;16.20;99.90
17687;DHT22;8962;52.538;13.266;2022-09-04T00:41:06;16.20;99.90
17687;DHT22;8962;52.538;13.266;2022-09-04T00:43:55;16.20;99.90
17687;DHT22;8962;52.538;13.266;2022-09-04T00:46:46;16.10;99.90
17687;DHT22;8962;52.538;13.266;2022-09-04T00:49:38;16.10;99.90
17687;DHT22;8962;52.538;13.266;2022-09-04T00:52:19;16.10;99.90
17687;DHT22;8962;52.538;13.266;2022-09-04T00:55:13;16.10;99.90
17687;DHT22;8962;52.538;13.266;2022-09-04T00:58:06;16.00;99.90
17687;DHT22;8962;52.538;13.266;2022-09-04T01:00:35;16.00;99.90
17687;DHT22;8962;52.538;13.266;2022-09-04T01:06:15;16.00;99.90
17687;DHT22;8962;52.538;13.266;2022-09-04T01:11:55;15.90;99.90
17687;DHT22;8962;52.538;13.266;2022-09-04T01:14:35;15.90;99.90
17687;DHT22;8962;52.538;13.266;2022-09-04T01:17:13;15.80;99.90
17687;DHT22;8962;52.538;13.266;2022-09-04T01:19:52;15.80;99.90
17687;DHT22;8962;52.538;13.266;2022-09-04T01:28:25;15.80;99.90
17687;DHT22;8962;52.538;13.266;2022-09-04T01:31:03;15.70;99.90
17687;DHT22;8962;52.538;13.266;2022-09-04T01:33:41;15.80;99.90
17687;DHT22;8962;52.538;13.266;2022-09-04T01:36:19;15.80;99.90
17687;DHT22;8962;52.538;13.266;2022-09-04T01:38:53;15.80;99.90
17687;DHT22;8962;52.538;13.266;2022-09-04T01:41:31;15.80;99.90
17687;DHT22;8962;52.538;13.266;2022-09-04T01:44:04;15.70;99.90
17687;DHT22;8962;52.538;13.266;2022-09-04T01:47:07;15.70;99.90
17687;DHT22;8962;52.538;13.266;2022-09-04T01:49:38;15.70;99.90
17687;DHT22;8962;52.538;13.266;2022-09-04T01:52:26;15.70;99.90
17687;DHT22;8962;52.538;13.266;2022-09-04T01:55:17;15.70;99.90
17687;DHT22;8962;52.538;13.266;2022-09-04T01:57:59;15.70;99.90
17687;DHT22;8962;52.538;13.266;2022-09-04T02:00:37;15.70;99.90
17687;DHT22;8962;52.538;13.266;2022-09-04T02:03:16;15.70;99.90
17687;DHT22;8962;52.538;13.266;2022-09-04T02:05:56;15.70;99.90
17687;DHT22;8962;52.538;13.266;2022-09-04T02:11:37;15.70;99.90
17687;DHT22;8962;52.538;13.266;2022-09-04T02:14:16;15.60;99.90
17687;DHT22;8962;52.538;13.266;2022-09-04T02:17:00;15.60;99.90
17687;DHT22;8962;52.538;13.266;2022-09-04T02:19:52;15.60;99.90
17687;DHT22;8962;52.538;13.266;2022-09-04T02:22:27;15.60;99.90
17687;DHT22;8962;52.538;13.266;2022-09-04T02:25:05;15.60;99.90
17687;DHT22;8962;52.538;13.266;2022-09-04T02:27:47;15.60;99.90
17687;DHT22;8962;52.538;13.266;2022-09-04T02:30:20;15.50;99.90
17687;DHT22;8962;52.538;13.266;2022-09-04T02:32:57;15.50;99.90
17687;DHT22;8962;52.538;13.266;2022-09-04T02:35:35;15.50;99.90
17687;DHT22;8962;52.538;13.266;2022-09-04T02:38:13;15.50;99.90
17687;DHT22;8962;52.538;13.266;2022-09-04T02:40:49;15.50;99.90
17687;DHT22;8962;52.538;13.266;2022-09-04T02:43:26;15.40;99.90
17687;DHT22;8962;52.538;13.266;2022-09-04T02:46:04;15.40;99.90
17687;DHT22;8962;52.538;13.266;2022-09-04T02:48:46;15.40;99.90
17687;DHT22;8962;52.538;13.266;2022-09-04T02:51:35;15.40;99.90
17687;DHT22;8962;52.538;13.266;2022-09-04T02:54:11;15.30;99.90
17687;DHT22;8962;52.538;13.266;2022-09-04T02:56:51;15.30;99.90
17687;DHT22;8962;52.538;13.266;2022-09-04T02:59:34;15.30;99.90
17687;DHT22;8962;52.538;13.266;2022-09-04T03:02:12;15.30;99.90
17687;DHT22;8962;52.538;13.266;2022-09-04T03:04:51;15.30;99.90
17687;DHT22;8962;52.538;13.266;2022-09-04T03:07:25;15.20;99.90
17687;DHT22;8962;52.538;13.266;2022-09-04T03:10:01;15.20;99.90
17687;DHT22;8962;52.538;13.266;2022-09-04T03:12:43;15.10;99.90
17687;DHT22;8962;52.538;13.266;2022-09-04T03:15:19;15.10;99.90
17687;DHT22;8962;52.538;13.266;2022-09-04T03:17:54;15.00;99.90
17687;DHT22;8962;52.538;13.266;2022-09-04T03:20:29;15.00;99.90
17687;DHT22;8962;52.538;13.266;2022-09-04T03:23:05;14.90;99.90
17687;DHT22;8962;52.538;13.266;2022-09-04T03:26:02;14.80;99.90
17687;DHT22;8962;52.538;13.266;2022-09-04T03:28:41;14.80;99.90
17687;DHT22;8962;52.538;13.266;2022-09-04T03:31:22;14.80;99.90
17687;DHT22;8962;52.538;13.266;2022-09-04T03:34:02;14.80;99.90
17687;DHT22;8962;52.538;13.266;2022-09-04T03:36:44;14.90;99.90
17687;DHT22;8962;52.538;13.266;2022-09-04T03:39:25;14.80;99.90
17687;DHT22;8962;52.538;13.266;2022-09-04T03:42:02;14.80;99.90
17687;DHT22;8962;52.538;13.266;2022-09-04T03:44:45;14.70;99.90
17687;DHT22;8962;52.538;13.266;2022-09-04T03:47:27;14.70;99.90
17687;DHT22;8962;52.538;13.266;2022-09-04T03:50:06;14.70;99.90
17687;DHT22;8962;52.538;13.266;2022-09-04T03:52:48;14.70;99.90
17687;DHT22;8962;52.538;13.266;2022-09-04T03:55:44;14.60;99.90
17687;DHT22;8962;52.538;13.266;2022-09-04T03:58:22;14.60;99.90
17687;DHT22;8962;52.538;13.266;2022-09-04T04:00:58;14.50;99.90
17687;DHT22;8962;52.538;13.266;2022-09-04T04:03:58;14.60;99.90
17687;DHT22;8962;52.538;13.266;2022-09-04T04:06:36;14.50;99.90
17687;DHT22;8962;52.538;13.266;2022-09-04T04:09:33;14.40;99.90
17687;DHT22;8962;52.538;13.266;2022-09-04T04:12:25;14.30;99.90
17687;DHT22;8962;52.538;13.266;2022-09-04T04:15:07;14.20;99.90
17687;DHT22;8962;52.538;13.266;2022-09-04T04:20:35;14.20;99.90
17687;DHT22;8962;52.538;13.266;2022-09-04T04:26:24;14.10;99.90
17687;DHT22;8962;52.538;13.266;2022-09-04T04:35:17;14.00;99.90
17687;DHT22;8962;52.538;13.266;2022-09-04T04:38:01;13.90;99.90
17687;DHT22;8962;52.538;13.266;2022-09-04T04:40:52;13.90;99.90
17687;DHT22;8962;52.538;13.266;2022-09-04T04:43:32;14.00;99.90
17687;DHT22;8962;52.538;13.266;2022-09-04T04:46:10;13.90;99.90
17687;DHT22;8962;52.538;13.266;2022-09-04T04:48:59;14.00;99.90
17687;DHT22;8962;52.538;13.266;2022-09-04T04:51:48;14.00;99.90
17687;DHT22;8962;52.538;13.266;2022-09-04T04:54:33;14.00;99.90
17687;DHT22;8962;52.538;13.266;2022-09-04T04:57:15;14.00;99.90
17687;DHT22;8962;52.538;13.266;2022-09-04T04:59:51;14.10;99.90
17687;DHT22;8962;52.538;13.266;2022-09-04T05:02:25;14.10;99.90
17687;DHT22;8962;52.538;13.266;2022-09-04T05:05:00;14.10;99.90
17687;DHT22;8962;52.538;13.266;2022-09-04T05:07:36;14.10;99.90
17687;DHT22;8962;52.538;13.266;2022-09-04T05:10:13;14.10;99.90
17687;DHT22;8962;52.538;13.266;2022-09-04T05:12:59;14.10;99.90
17687;DHT22;8962;52.538;13.266;2022-09-04T05:15:36;14.10;99.90
17687;DHT22;8962;52.538;13.266;2022-09-04T05:18:12;14.20;99.90
17687;DHT22;8962;52.538;13.266;2022-09-04T05:20:49;14.20;99.90
17687;DHT22;8962;52.538;13.266;2022-09-04T05:23:28;14.30;99.90
17687;DHT22;8962;52.538;13.266;2022-09-04T05:26:06;14.30;99.90
17687;DHT22;8962;52.538;13.266;2022-09-04T05:28:44;14.40;99.90
17687;DHT22;8962;52.538;13.266;2022-09-04T05:31:27;14.40;99.90
17687;DHT22;8962;52.538;13.266;2022-09-04T05:34:03;14.50;99.90
17687;DHT22;8962;52.538;13.266;2022-09-04T05:36:45;14.60;99.90
17687;DHT22;8962;52.538;13.266;2022-09-04T05:39:26;14.60;99.90
17687;DHT22;8962;52.538;13.266;2022-09-04T05:42:07;14.60;99.90
17687;DHT22;8962;52.538;13.266;2022-09-04T05:44:49;14.70;99.90
17687;DHT22;8962;52.538;13.266;2022-09-04T05:47:29;14.70;99.90
17687;DHT22;8962;52.538;13.266;2022-09-04T05:50:19;14.80;99.90
17687;DHT22;8962;52.538;13.266;2022-09-04T05:53:08;14.90;99.90
17687;DHT22;8962;52.538;13.266;2022-09-04T05:56:12;15.00;99.90
17687;DHT22;8962;52.538;13.266;2022-09-04T05:59:01;15.10;99.90
17687;DHT22;8962;52.538;13.266;2022-09-04T06:01:53;15.30;99.90
17687;DHT22;8962;52.538;13.266;2022-09-04T06:04:54;15.50;99.90
17687;DHT22;8962;52.538;13.266;2022-09-04T06:07:30;15.70;99.90
17687;DHT22;8962;52.538;13.266;2022-09-04T06:10:09;15.90;99.90
17687;DHT22;8962;52.538;13.266;2022-09-04T06:13:02;16.10;99.90
17687;DHT22;8962;52.538;13.266;2022-09-04T06:15:43;16.20;99.90
17687;DHT22;8962;52.538;13.266;2022-09-04T06:18:27;16.30;99.90
17687;DHT22;8962;52.538;13.266;2022-09-04T06:21:13;16.20;99.90
17687;DHT22;8962;52.538;13.266;2022-09-04T06:24:01;16.20;99.90
17687;DHT22;8962;52.538;13.266;2022-09-04T06:27:04;16.10;99.90
17687;DHT22;8962;52.538;13.266;2022-09-04T06:29:58;16.10;99.90
17687;DHT22;8962;52.538;13.266;2022-09-04T06:38:45;16.30;99.90
17687;DHT22;8962;52.538;13.266;2022-09-04T06:41:29;16.40;99.90
17687;DHT22;8962;52.538;13.266;2022-09-04T06:44:10;16.50;99.90
17687;DHT22;8962;52.538;13.266;2022-09-04T06:46:47;16.70;99.90
17687;DHT22;8962;52.538;13.266;2022-09-04T06:49:21;16.70;99.90
17687;DHT22;8962;52.538;13.266;2022-09-04T06:52:06;16.70;99.90
17687;DHT22;8962;52.538;13.266;2022-09-04T06:54:48;16.80;99.90
17687;DHT22;8962;52.538;13.266;2022-09-04T06:57:57;17.00;99.90
17687;DHT22;8962;52.538;13.266;2022-09-04T07:00:37;17.10;99.90
17687;DHT22;8962;52.538;13.266;2022-09-04T07:03:13;17.20;99.90
17687;DHT22;8962;52.538;13.266;2022-09-04T07:05:53;17.40;99.90
17687;DHT22;8962;52.538;13.266;2022-09-04T07:08:36;17.50;99.90
17687;DHT22;8962;52.538;13.266;2022-09-04T07:11:18;17.50;99.90
17687;DHT22;8962;52.538;13.266;2022-09-04T07:14:25;17.70;99.90
17687;DHT22;8962;52.538;13.266;2022-09-04T07:17:02;17.90;99.90
17687;DHT22;8962;52.538;13.266;2022-09-04T07:20:13;18.00;99.90
17687;DHT22;8962;52.538;13.266;2022-09-04T07:22:53;18.20;99.90
17687;DHT22;8962;52.538;13.266;2022-09-04T07:25:35;18.20;99.90
17687;DHT22;8962;52.538;13.266;2022-09-04T07:28:28;18.40;99.90
17687;DHT22;8962;52.538;13.266;2022-09-04T07:31:07;18.50;99.90
17687;DHT22;8962;52.538;13.266;2022-09-04T07:33:42;18.50;99.90
17687;DHT22;8962;52.538;13.266;2022-09-04T07:36:27;18.60;99.90
17687;DHT22;8962;52.538;13.266;2022-09-04T07:39:03;18.70;99.90
17687;DHT22;8962;52.538;13.266;2022-09-04T07:41:45;18.60;99.90
17687;DHT22;8962;52.538;13.266;2022-09-04T07:44:21;18.70;99.90
17687;DHT22;8962;52.538;13.266;2022-09-04T07:46:59;18.70;99.90
17687;DHT22;8962;52.538;13.266;2022-09-04T07:49:36;18.80;99.90
17687;DHT22;8962;52.538;13.266;2022-09-04T07:52:10;19.00;99.90
17687;DHT22;8962;52.538;13.266;2022-09-04T07:55:07;19.20;99.90
17687;DHT22;8962;52.538;13.266;2022-09-04T07:57:58;19.30;99.90
17687;DHT22;8962;52.538;13.266;2022-09-04T08:00:38;19.40;99.90
17687;DHT22;8962;52.538;13.266;2022-09-04T08:03:37;19.50;99.90
17687;DHT22;8962;52.538;13.266;2022-09-04T08:06:18;19.60;99.90
17687;DHT22;8962;52.538;13.266;2022-09-04T08:08:57;19.70;99.90
17687;DHT22;8962;52.538;13.266;2022-09-04T08:12:08;20.00;99.90
17687;DHT22;8962;52.538;13.266;2022-09-04T08:14:53;20.00;99.90
17687;DHT22;8962;52.538;13.266;2022-09-04T08:17:43;20.20;99.90
17687;DHT22;8962;52.538;13.266;2022-09-04T08:20:26;20.50;99.90
17687;DHT22;8962;52.538;13.266;2022-09-04T08:23:28;20.50;99.90
17687;DHT22;8962;52.538;13.266;2022-09-04T08:26:12;20.70;99.90
17687;DHT22;8962;52.538;13.266;2022-09-04T08:28:59;20.90;99.90
17687;DHT22;8962;52.538;13.266;2022-09-04T08:31:40;20.90;99.90
17687;DHT22;8962;52.538;13.266;2022-09-04T08:34:55;21.10;99.90
17687;DHT22;8962;52.538;13.266;2022-09-04T08:37:35;21.20;99.90
17687;DHT22;8962;52.538;13.266;2022-09-04T08:43:45;21.30;99.90
17687;DHT22;8962;52.538;13.266;2022-09-04T08:46:42;21.40;99.90
17687;DHT22;8962;52.538;13.266;2022-09-04T08:55:44;22.00;99.90
17687;DHT22;8962;52.538;13.266;2022-09-04T09:05:14;22.40;99.90
17687;DHT22;8962;52.538;13.266;2022-09-04T09:17:11;22.60;99.90
17687;DHT22;8962;52.538;13.266;2022-09-04T09:19:57;22.70;99.90
17687;DHT22;8962;52.538;13.266;2022-09-04T09:22:48;22.50;99.90
17687;DHT22;8962;52.538;13.266;2022-09-04T09:25:50;22.50;99.90
17687;DHT22;8962;52.538;13.266;2022-09-04T09:28:57;22.60;99.90
17687;DHT22;8962;52.538;13.266;2022-09-04T09:47:22;22.70;99.90
17687;DHT22;8962;52.538;13.266;2022-09-04T09:50:27;22.80;99.90
17687;DHT22;8962;52.538;13.266;2022-09-04T09:53:30;22.80;99.90
17687;DHT22;8962;52.538;13.266;2022-09-04T10:02:54;23.10;99.90
17687;DHT22;8962;52.538;13.266;2022-09-04T10:21:37;23.40;99.90
17687;DHT22;8962;52.538;13.266;2022-09-04T10:24:47;23.60;99.90
17687;DHT22;8962;52.538;13.266;2022-09-04T10:27:34;23.90;99.90
17687;DHT22;8962;52.538;13.266;2022-09-04T10:30:13;24.10;99.90
17687;DHT22;8962;52.538;13.266;2022-09-04T10:33:16;24.20;99.90
17687;DHT22;8962;52.538;13.266;2022-09-04T10:35:56;24.20;99.90
17687;DHT22;8962;52.538;13.266;2022-09-04T10:38:35;24.20;99.90
17687;DHT22;8962;52.538;13.266;2022-09-04T10:44:39;24.00;99.90
17687;DHT22;8962;52.538;13.266;2022-09-04T10:47:25;24.10;99.90
17687;DHT22;8962;52.538;13.266;2022-09-04T10:50:16;24.10;99.90
17687;DHT22;8962;52.538;13.266;2022-09-04T10:56:21;23.90;99.90
17687;DHT22;8962;52.538;13.266;2022-09-04T11:02:22;23.80;99.90
17687;DHT22;8962;52.538;13.266;2022-09-04T11:05:22;23.90;99.90
17687;DHT22;8962;52.538;13.266;2022-09-04T11:11:14;24.10;99.90
17687;DHT22;8962;52.538;13.266;2022-09-04T11:29:34;24.90;99.90
17687;DHT22;8962;52.538;13.266;2022-09-04T11:36:00;26.90;99.90
17687;DHT22;8962;52.538;13.266;2022-09-04T11:38:55;27.20;99.30
17687;DHT22;8962;52.538;13.266;2022-09-04T11:42:12;27.70;97.80
17687;DHT22;8962;52.538;13.266;2022-09-04T11:51:28;29.70;92.00
17687;DHT22;8962;52.538;13.266;2022-09-04T11:54:27;28.90;91.50
17687;DHT22;8962;52.538;13.266;2022-09-04T11:57:06;28.90;91.50
17687;DHT22;8962;52.538;13.266;2022-09-04T11:59:48;30.10;90.00
17687;DHT22;8962;52.538;13.266;2022-09-04T12:05:25;30.50;83.40
17687;DHT22;8962;52.538;13.266;2022-09-04T12:08:22;30.20;83.40
17687;DHT22;8962;52.538;13.266;2022-09-04T12:14:08;30.00;84.10
17687;DHT22;8962;52.538;13.266;2022-09-04T12:17:19;29.90;82.30
17687;DHT22;8962;52.538;13.266;2022-09-04T12:20:22;30.50;81.80
17687;DHT22;8962;52.538;13.266;2022-09-04T12:23:11;30.60;78.00
17687;DHT22;8962;52.538;13.266;2022-09-04T12:26:00;29.90;78.40
17687;DHT22;8962;52.538;13.266;2022-09-04T12:29:01;29.80;76.60
17687;DHT22;8962;52.538;13.266;2022-09-04T12:32:00;30.80;76.00
17687;DHT22;8962;52.538;13.266;2022-09-04T12:35:04;31.00;74.40
17687;DHT22;8962;52.538;13.266;2022-09-04T12:37:52;31.50;74.10
17687;DHT22;8962;52.538;13.266;2022-09-04T12:40:33;32.00;69.20
17687;DHT22;8962;52.538;13.266;2022-09-04T12:43:23;31.40;70.00
17687;DHT22;8962;52.538;13.266;2022-09-04T12:46:04;32.10;67.40
17687;DHT22;8962;52.538;13.266;2022-09-04T12:48:45;32.60;66.50
17687;DHT22;8962;52.538;13.266;2022-09-04T12:51:29;31.90;65.70
17687;DHT22;8962;52.538;13.266;2022-09-04T12:57:12;31.40;65.60
17687;DHT22;8962;52.538;13.266;2022-09-04T12:59:55;32.60;63.60
17687;DHT22;8962;52.538;13.266;2022-09-04T13:02:43;32.60;63.10
17687;DHT22;8962;52.538;13.266;2022-09-04T13:05:37;32.60;62.30
17687;DHT22;8962;52.538;13.266;2022-09-04T13:08:11;33.00;62.10
17687;DHT22;8962;52.538;13.266;2022-09-04T13:10:56;32.70;62.20
17687;DHT22;8962;52.538;13.266;2022-09-04T13:13:37;33.20;61.80
17687;DHT22;8962;52.538;13.266;2022-09-04T13:16:17;33.50;60.90
17687;DHT22;8962;52.538;13.266;2022-09-04T13:19:02;32.50;61.80
17687;DHT22;8962;52.538;13.266;2022-09-04T13:21:51;33.60;59.80
17687;DHT22;8962;52.538;13.266;2022-09-04T13:24:33;34.30;57.80
17687;DHT22;8962;52.538;13.266;2022-09-04T13:27:14;34.30;57.30
17687;DHT22;8962;52.538;13.266;2022-09-04T13:30:00;34.60;55.80
17687;DHT22;8962;52.538;13.266;2022-09-04T13:32:49;33.70;56.10
17687;DHT22;8962;52.538;13.266;2022-09-04T13:35:37;34.10;55.30
17687;DHT22;8962;52.538;13.266;2022-09-04T13:38:32;33.60;55.20
17687;DHT22;8962;52.538;13.266;2022-09-04T13:41:36;32.90;56.90
17687;DHT22;8962;52.538;13.266;2022-09-04T13:44:28;30.90;59.70
17687;DHT22;8962;52.538;13.266;2022-09-04T13:47:07;30.00;62.00
17687;DHT22;8962;52.538;13.266;2022-09-04T13:49:42;30.90;60.20
17687;DHT22;8962;52.538;13.266;2022-09-04T13:52:18;32.00;58.90
17687;DHT22;8962;52.538;13.266;2022-09-04T13:54:56;33.10;56.20
17687;DHT22;8962;52.538;13.266;2022-09-04T13:57:27;33.10;55.10
17687;DHT22;8962;52.538;13.266;2022-09-04T13:59:57;33.80;54.20
17687;DHT22;8962;52.538;13.266;2022-09-04T14:02:30;33.20;54.40
17687;DHT22;8962;52.538;13.266;2022-09-04T14:05:05;32.00;55.70
17687;DHT22;8962;52.538;13.266;2022-09-04T14:07:35;30.00;58.40
17687;DHT22;8962;52.538;13.266;2022-09-04T14:10:07;29.70;59.80
17687;DHT22;8962;52.538;13.266;2022-09-04T14:12:48;31.80;56.80
17687;DHT22;8962;52.538;13.266;2022-09-04T14:15:43;32.50;54.90
17687;DHT22;8962;52.538;13.266;2022-09-04T14:18:27;33.40;53.00
17687;DHT22;8962;52.538;13.266;2022-09-04T14:21:00;33.10;53.80
17687;DHT22;8962;52.538;13.266;2022-09-04T14:23:41;32.80;53.30
17687;DHT22;8962;52.538;13.266;2022-09-04T14:26:18;32.60;53.50
17687;DHT22;8962;52.538;13.266;2022-09-04T14:28:54;31.50;53.90
17687;DHT22;8962;52.538;13.266;2022-09-04T14:31:28;30.70;55.80
17687;DHT22;8962;52.538;13.266;2022-09-04T14:34:06;30.60;56.50
17687;DHT22;8962;52.538;13.266;2022-09-04T14:36:47;29.70;57.90
17687;DHT22;8962;52.538;13.266;2022-09-04T14:39:26;29.10;58.80
17687;DHT22;8962;52.538;13.266;2022-09-04T14:42:10;28.80;59.30
17687;DHT22;8962;52.538;13.266;2022-09-04T14:44:52;28.40;62.10
17687;DHT22;8962;52.538;13.266;2022-09-04T14:47:28;28.00;61.40
17687;DHT22;8962;52.538;13.266;2022-09-04T14:50:03;27.20;63.60
17687;DHT22;8962;52.538;13.266;2022-09-04T14:52:40;26.90;65.10
17687;DHT22;8962;52.538;13.266;2022-09-04T14:55:14;26.70;64.90
17687;DHT22;8962;52.538;13.266;2022-09-04T14:57:47;26.60;64.80
17687;DHT22;8962;52.538;13.266;2022-09-04T15:00:17;26.30;66.70
17687;DHT22;8962;52.538;13.266;2022-09-04T15:02:50;25.80;67.70
17687;DHT22;8962;52.538;13.266;2022-09-04T15:05:22;25.70;68.10
17687;DHT22;8962;52.538;13.266;2022-09-04T15:08:00;25.50;68.40
17687;DHT22;8962;52.538;13.266;2022-09-04T15:10:34;25.30;69.30
17687;DHT22;8962;52.538;13.266;2022-09-04T15:13:32;25.00;70.70
17687;DHT22;8962;52.538;13.266;2022-09-04T15:16:10;24.80;72.20
17687;DHT22;8962;52.538;13.266;2022-09-04T15:18:50;24.80;72.50
17687;DHT22;8962;52.538;13.266;2022-09-04T15:21:26;24.80;72.60
17687;DHT22;8962;52.538;13.266;2022-09-04T15:24:07;24.90;72.90
17687;DHT22;8962;52.538;13.266;2022-09-04T15:26:38;24.80;73.40
17687;DHT22;8962;52.538;13.266;2022-09-04T15:29:15;24.90;73.80
17687;DHT22;8962;52.538;13.266;2022-09-04T15:31:45;25.00;72.80
17687;DHT22;8962;52.538;13.266;2022-09-04T15:34:19;24.90;74.40
17687;DHT22;8962;52.538;13.266;2022-09-04T15:36:48;24.80;73.70
17687;DHT22;8962;52.538;13.266;2022-09-04T15:39:26;24.80;73.30
17687;DHT22;8962;52.538;13.266;2022-09-04T15:41:55;24.80;74.20
17687;DHT22;8962;52.538;13.266;2022-09-04T15:44:25;24.80;75.10
17687;DHT22;8962;52.538;13.266;2022-09-04T15:47:00;24.80;74.80
17687;DHT22;8962;52.538;13.266;2022-09-04T15:49:44;24.80;75.30
17687;DHT22;8962;52.538;13.266;2022-09-04T15:52:27;24.50;75.80
17687;DHT22;8962;52.538;13.266;2022-09-04T15:55:04;24.40;75.60
17687;DHT22;8962;52.538;13.266;2022-09-04T15:57:45;24.40;76.00
17687;DHT22;8962;52.538;13.266;2022-09-04T16:00:14;24.50;76.40
17687;DHT22;8962;52.538;13.266;2022-09-04T16:02:52;24.50;76.30
17687;DHT22;8962;52.538;13.266;2022-09-04T16:05:24;24.40;76.80
17687;DHT22;8962;52.538;13.266;2022-09-04T16:08:05;24.20;77.80
17687;DHT22;8962;52.538;13.266;2022-09-04T16:10:53;24.20;78.20
17687;DHT22;8962;52.538;13.266;2022-09-04T16:13:33;24.20;78.30
17687;DHT22;8962;52.538;13.266;2022-09-04T16:16:08;24.30;77.90
17687;DHT22;8962;52.538;13.266;2022-09-04T16:18:54;24.20;78.30
17687;DHT22;8962;52.538;13.266;2022-09-04T16:21:31;24.20;78.40
17687;DHT22;8962;52.538;13.266;2022-09-04T16:24:07;24.00;78.80
17687;DHT22;8962;52.538;13.266;2022-09-04T16:26:40;23.90;79.60
17687;DHT22;8962;52.538;13.266;2022-09-04T16:29:17;23.90;79.80
17687;DHT22;8962;52.538;13.266;2022-09-04T16:31:51;24.00;80.10
17687;DHT22;8962;52.538;13.266;2022-09-04T16:34:21;23.90;79.80
17687;DHT22;8962;52.538;13.266;2022-09-04T16:36:52;23.80;80.30
17687;DHT22;8962;52.538;13.266;2022-09-04T16:39:31;23.70;80.20
17687;DHT22;8962;52.538;13.266;2022-09-04T16:42:14;23.60;80.00
17687;DHT22;8962;52.538;13.266;2022-09-04T16:44:46;23.50;80.00
17687;DHT22;8962;52.538;13.266;2022-09-04T16:47:20;23.40;80.80
17687;DHT22;8962;52.538;13.266;2022-09-04T16:49:55;23.40;81.70
17687;DHT22;8962;52.538;13.266;2022-09-04T16:52:35;23.40;82.00
17687;DHT22;8962;52.538;13.266;2022-09-04T16:55:12;23.30;82.30
17687;DHT22;8962;52.538;13.266;2022-09-04T16:57:50;23.20;82.80
17687;DHT22;8962;52.538;13.266;2022-09-04T17:00:21;23.00;83.80
17687;DHT22;8962;52.538;13.266;2022-09-04T17:02:56;22.90;85.30
17687;DHT22;8962;52.538;13.266;2022-09-04T17:05:29;22.80;85.00
17687;DHT22;8962;52.538;13.266;2022-09-04T17:08:07;22.70;85.60
17687;DHT22;8962;52.538;13.266;2022-09-04T17:10:41;22.60;86.80
17687;DHT22;8962;52.538;13.266;2022-09-04T17:13:18;22.50;86.50
17687;DHT22;8962;52.538;13.266;2022-09-04T17:15:52;22.50;87.90
17687;DHT22;8962;52.538;13.266;2022-09-04T17:18:23;22.40;87.70
17687;DHT22;8962;52.538;13.266;2022-09-04T17:20:58;22.30;88.70
17687;DHT22;8962;52.538;13.266;2022-09-04T17:23:32;22.20;89.60
17687;DHT22;8962;52.538;13.266;2022-09-04T17:26:07;22.20;90.00
17687;DHT22;8962;52.538;13.266;2022-09-04T17:28:45;22.10;90.00
17687;DHT22;8962;52.538;13.266;2022-09-04T17:31:24;22.10;90.60
17687;DHT22;8962;52.538;13.266;2022-09-04T17:34:02;22.00;91.00
17687;DHT22;8962;52.538;13.266;2022-09-04T17:36:36;21.90;90.90
17687;DHT22;8962;52.538;13.266;2022-09-04T17:39:10;21.80;91.40
17687;DHT22;8962;52.538;13.266;2022-09-04T17:41:42;21.70;91.80
17687;DHT22;8962;52.538;13.266;2022-09-04T17:44:37;21.70;92.00
17687;DHT22;8962;52.538;13.266;2022-09-04T17:47:19;21.60;92.40
17687;DHT22;8962;52.538;13.266;2022-09-04T17:49:52;21.50;92.60
17687;DHT22;8962;52.538;13.266;2022-09-04T17:52:22;21.30;92.90
17687;DHT22;8962;52.538;13.266;2022-09-04T17:54:54;21.20;93.50
17687;DHT22;8962;52.538;13.266;2022-09-04T17:57:31;21.10;94.10
17687;DHT22;8962;52.538;13.266;2022-09-04T18:00:05;21.10;94.60
17687;DHT22;8962;52.538;13.266;2022-09-04T18:02:40;21.00;94.80
17687;DHT22;8962;52.538;13.266;2022-09-04T18:05:14;20.80;95.20
17687;DHT22;8962;52.538;13.266;2022-09-04T18:07:47;20.80;95.80
17687;DHT22;8962;52.538;13.266;2022-09-04T18:10:24;20.70;96.00
17687;DHT22;8962;52.538;13.266;2022-09-04T18:13:06;20.60;96.50
17687;DHT22;8962;52.538;13.266;2022-09-04T18:15:42;20.50;96.80
17687;DHT22;8962;52.538;13.266;2022-09-04T18:18:17;20.30;97.20
17687;DHT22;8962;52.538;13.266;2022-09-04T18:20:50;20.30;97.80
17687;DHT22;8962;52.538;13.266;2022-09-04T18:23:29;20.20;98.40
17687;DHT22;8962;52.538;13.266;2022-09-04T18:26:08;20.10;99.10
17687;DHT22;8962;52.538;13.266;2022-09-04T18:28:40;20.10;99.20
17687;DHT22;8962;52.538;13.266;2022-09-04T18:31:18;20.10;99.40
17687;DHT22;8962;52.538;13.266;2022-09-04T18:33:59;20.10;99.70
17687;DHT22;8962;52.538;13.266;2022-09-04T18:36:34;20.00;99.90
17687;DHT22;8962;52.538;13.266;2022-09-04T18:39:07;20.00;99.90
17687;DHT22;8962;52.538;13.266;2022-09-04T18:42:05;19.90;99.90
17687;DHT22;8962;52.538;13.266;2022-09-04T18:44:39;19.90;99.90
17687;DHT22;8962;52.538;13.266;2022-09-04T18:47:17;19.90;99.90
17687;DHT22;8962;52.538;13.266;2022-09-04T18:49:51;19.80;99.90
17687;DHT22;8962;52.538;13.266;2022-09-04T18:52:23;19.80;99.90
17687;DHT22;8962;52.538;13.266;2022-09-04T18:54:54;19.80;99.90
17687;DHT22;8962;52.538;13.266;2022-09-04T18:57:28;19.70;99.90
17687;DHT22;8962;52.538;13.266;2022-09-04T19:00:02;19.70;99.90
17687;DHT22;8962;52.538;13.266;2022-09-04T19:02:32;19.70;99.90
17687;DHT22;8962;52.538;13.266;2022-09-04T19:05:06;19.70;99.90
17687;DHT22;8962;52.538;13.266;2022-09-04T19:07:37;19.60;99.90
17687;DHT22;8962;52.538;13.266;2022-09-04T19:10:17;19.60;99.90
17687;DHT22;8962;52.538;13.266;2022-09-04T19:12:58;19.60;99.90
17687;DHT22;8962;52.538;13.266;2022-09-04T19:15:37;19.60;99.90
17687;DHT22;8962;52.538;13.266;2022-09-04T19:18:19;19.50;99.90
17687;DHT22;8962;52.538;13.266;2022-09-04T19:20:50;19.40;99.90
17687;DHT22;8962;52.538;13.266;2022-09-04T19:23:25;19.30;99.90
17687;DHT22;8962;52.538;13.266;2022-09-04T19:25:55;19.30;99.90